Time;durP1;ratioP1;P1;durP2;ratioP2;P2;SDS_P1;SDS_P2;PMS_P1;PMS_P2;Temp;Humidity;BMP_temperature;BMP_pressure;BME280_temperature;BME280_humidity;BME280_pressure;Samples;Min_cycle;Max_cycle;Signal;HPM_P1;HPM_P2
2022/11/07 00:02:05;;;;;;;6.90;5.40;;;10.50;99.90;;;;;;4986066;28;20105;-79
2022/11/07 00:04:31;;;;;;;6.20;5.18;;;10.40;99.90;;;;;;4976724;28;20034;-77
2022/11/07 00:06:57;;;;;;;7.72;5.22;;;10.30;99.90;;;;;;4971550;28;20062;-78
2022/11/07 00:09:23;;;;;;;6.35;5.70;;;10.40;99.90;;;;;;4987156;28;20543;-78
2022/11/07 00:11:49;;;;;;;7.10;5.45;;;10.40;99.90;;;;;;4986911;28;20096;-78
2022/11/07 00:14:15;;;;;;;7.07;5.18;;;10.50;99.90;;;;;;4988394;28;20068;-78
2022/11/07 00:16:42;;;;;;;7.05;5.40;;;10.50;99.90;;;;;;4987780;28;20497;-78
2022/11/07 00:19:08;;;;;;;5.53;5.00;;;10.60;99.90;;;;;;4970048;28;20054;-78
2022/11/07 00:21:33;;;;;;;11.98;5.55;;;10.50;99.90;;;;;;4984719;28;20043;-78
2022/11/07 00:23:59;;;;;;;7.97;5.38;;;10.70;99.90;;;;;;4987975;28;20489;-78
2022/11/07 00:26:25;;;;;;;7.53;4.93;;;10.80;99.90;;;;;;4986624;28;20046;-78
2022/11/07 00:28:50;;;;;;;9.18;5.00;;;10.60;99.90;;;;;;4987875;28;20064;-78
2022/11/07 00:31:16;;;;;;;7.95;5.25;;;10.70;99.90;;;;;;4986640;28;20101;-78
2022/11/07 00:33:43;;;;;;;6.57;5.30;;;10.60;99.90;;;;;;4984717;28;20046;-78
2022/11/07 00:36:14;;;;;;;9.98;5.15;;;12.40;99.90;;;;;;4986964;28;20051;-78
2022/11/07 00:38:40;;;;;;;10.57;5.72;;;10.50;99.90;;;;;;4972757;28;20125;-78
2022/11/07 00:41:06;;;;;;;8.00;4.63;;;10.70;99.90;;;;;;4986802;28;20671;-78
2022/11/07 00:43:32;;;;;;;8.27;5.35;;;10.60;99.90;;;;;;4987900;28;20096;-78
2022/11/07 00:46:01;;;;;;;6.35;5.03;;;10.80;99.90;;;;;;4986959;28;20125;-78
2022/11/07 00:48:27;;;;;;;9.82;5.30;;;10.30;99.90;;;;;;4986305;28;20467;-78
2022/11/07 00:50:53;;;;;;;9.50;5.07;;;10.80;99.90;;;;;;4985672;28;20050;-78
2022/11/07 00:53:18;;;;;;;7.97;4.57;;;11.50;99.90;;;;;;4988487;28;20142;-78
2022/11/07 00:55:44;;;;;;;11.98;5.43;;;10.70;99.90;;;;;;4986368;28;20050;-78
2022/11/07 00:58:10;;;;;;;8.82;5.00;;;10.80;99.90;;;;;;4969779;28;20046;-78
2022/11/07 01:00:38;;;;;;;11.05;5.35;;;10.80;99.90;;;;;;4987367;28;20050;-78
2022/11/07 01:05:59;;;;;;;11.20;5.45;;;10.50;99.90;;;;;;4986201;28;20046;-78
2022/11/07 01:08:25;;;;;;;9.48;4.90;;;10.70;99.90;;;;;;4986401;28;20404;-78
2022/11/07 01:10:51;;;;;;;8.45;4.85;;;10.60;99.90;;;;;;4985906;28;20042;-78
2022/11/07 01:13:16;;;;;;;8.57;4.90;;;10.70;99.90;;;;;;4970013;28;20052;-78
2022/11/07 01:15:42;;;;;;;8.60;5.00;;;10.80;99.90;;;;;;4986412;28;20050;-78
2022/11/07 01:18:08;;;;;;;8.98;4.90;;;10.80;99.90;;;;;;4986071;28;20050;-78
2022/11/07 01:20:36;;;;;;;8.05;4.85;;;10.80;99.90;;;;;;4971539;28;20050;-78
2022/11/07 01:23:02;;;;;;;9.45;5.35;;;10.80;99.90;;;;;;4987664;28;20683;-78
2022/11/07 01:25:27;;;;;;;9.18;5.10;;;10.80;99.90;;;;;;4987049;28;20049;-78
2022/11/07 01:27:53;;;;;;;8.25;5.03;;;10.90;99.90;;;;;;4985146;28;20061;-78
2022/11/07 01:30:18;;;;;;;8.63;4.53;;;10.70;99.90;;;;;;4985899;28;20109;-78
2022/11/07 01:32:44;;;;;;;9.60;5.38;;;10.80;99.90;;;;;;4985862;28;20133;-78
2022/11/07 01:35:09;;;;;;;12.57;5.10;;;10.70;99.90;;;;;;4983402;28;20421;-78
2022/11/07 01:37:35;;;;;;;7.65;4.75;;;10.90;99.90;;;;;;4986489;28;20093;-78
2022/11/07 01:40:01;;;;;;;8.82;5.28;;;10.90;99.90;;;;;;4988274;28;20051;-78
2022/11/07 01:42:26;;;;;;;9.43;4.53;;;10.80;99.90;;;;;;4986317;28;20516;-78
2022/11/07 01:44:58;;;;;;;8.55;4.90;;;10.90;99.90;;;;;;4986209;28;20106;-78
2022/11/07 01:47:30;;;;;;;10.57;4.40;;;10.90;99.90;;;;;;4987075;28;20069;-78
2022/11/07 01:49:56;;;;;;;7.95;4.55;;;11.00;99.90;;;;;;4987608;28;20309;-78
2022/11/07 01:52:35;;;;;;;8.20;4.80;;;10.90;99.90;;;;;;4986985;28;20699;-78
2022/11/07 01:55:15;;;;;;;7.03;5.50;;;10.90;99.90;;;;;;4972074;28;20105;-78
2022/11/07 01:57:45;;;;;;;7.97;4.75;;;11.00;99.90;;;;;;4988669;28;20046;-78
2022/11/07 02:00:14;;;;;;;7.75;4.30;;;11.00;99.90;;;;;;4988780;28;20781;-78
2022/11/07 02:02:40;;;;;;;10.77;4.65;;;11.00;99.90;;;;;;4989630;28;20049;-78
2022/11/07 02:05:08;;;;;;;8.15;4.38;;;10.90;99.90;;;;;;4991116;28;20050;-78
2022/11/07 02:07:34;;;;;;;9.80;4.25;;;11.10;99.90;;;;;;5002009;28;20057;-78
2022/11/07 02:10:01;;;;;;;8.35;4.50;;;10.90;99.90;;;;;;4989295;28;20100;-78
2022/11/07 02:12:28;;;;;;;9.38;4.38;;;11.10;99.90;;;;;;4990304;28;20046;-78
2022/11/07 02:14:54;;;;;;;7.75;4.07;;;11.20;99.90;;;;;;4989766;28;20101;-78
2022/11/07 02:17:20;;;;;;;10.20;4.35;;;11.00;99.90;;;;;;4989866;28;20038;-78
2022/11/07 02:19:50;;;;;;;8.45;4.47;;;11.00;99.90;;;;;;4991229;28;20108;-78
2022/11/07 02:22:33;;;;;;;8.18;4.25;;;11.10;99.90;;;;;;4988876;28;20080;-78
2022/11/07 02:25:02;;;;;;;7.05;3.67;;;11.00;99.90;;;;;;4990150;28;20082;-78
2022/11/07 02:27:30;;;;;;;7.18;4.00;;;11.00;99.90;;;;;;4989479;28;20128;-78
2022/11/07 02:30:17;;;;;;;7.28;3.67;;;10.90;99.90;;;;;;4989321;28;20050;-78
2022/11/07 02:32:43;;;;;;;6.80;4.22;;;10.90;99.90;;;;;;4988523;28;20473;-78
2022/11/07 02:35:33;;;;;;;6.63;4.10;;;11.00;99.90;;;;;;4990553;28;20077;-78
2022/11/07 02:38:00;;;;;;;9.70;4.32;;;11.10;99.90;;;;;;4989448;28;20058;-78
2022/11/07 02:40:29;;;;;;;5.22;3.80;;;11.20;99.90;;;;;;4989256;28;20062;-78
2022/11/07 02:42:55;;;;;;;8.32;4.18;;;11.10;99.90;;;;;;4988996;28;20055;-78
2022/11/07 02:45:29;;;;;;;9.07;3.90;;;11.00;99.90;;;;;;4989747;28;20047;-78
2022/11/07 02:47:55;;;;;;;7.40;4.03;;;11.10;99.90;;;;;;4986726;28;20133;-78
2022/11/07 02:50:21;;;;;;;10.70;4.50;;;11.10;99.90;;;;;;4989071;28;20096;-78
2022/11/07 02:52:46;;;;;;;7.78;4.18;;;11.10;99.90;;;;;;4989328;28;20078;-77
2022/11/07 02:55:13;;;;;;;9.32;4.90;;;11.20;99.90;;;;;;4988795;28;20082;-78
2022/11/07 02:57:39;;;;;;;8.23;4.60;;;11.20;99.90;;;;;;4988610;28;20046;-78
2022/11/07 03:00:08;;;;;;;9.40;4.53;;;11.20;99.90;;;;;;4972054;28;20104;-78
2022/11/07 03:02:33;;;;;;;7.88;4.78;;;11.30;99.90;;;;;;4989399;28;20507;-78
2022/11/07 03:04:59;;;;;;;8.68;4.68;;;11.20;99.90;;;;;;4973636;28;20046;-78
2022/11/07 03:07:25;;;;;;;8.65;4.28;;;11.20;99.90;;;;;;4977932;28;20417;-78
2022/11/07 03:09:50;;;;;;;8.93;4.40;;;11.00;99.90;;;;;;4989793;28;20200;-78
2022/11/07 03:12:16;;;;;;;9.40;4.90;;;11.10;99.90;;;;;;4987653;28;20046;-79
2022/11/07 03:14:41;;;;;;;7.45;4.78;;;11.10;99.90;;;;;;4970075;28;20091;-78
2022/11/07 03:17:08;;;;;;;11.18;4.75;;;11.10;99.90;;;;;;4960134;28;20089;-79
2022/11/07 03:19:33;;;;;;;6.68;4.63;;;10.90;99.90;;;;;;4990264;28;20480;-78
2022/11/07 03:22:04;;;;;;;10.40;4.43;;;11.10;99.90;;;;;;4989899;28;20043;-79
2022/11/07 03:24:31;;;;;;;12.60;4.30;;;10.90;99.90;;;;;;4990110;28;20046;-78
2022/11/07 03:26:57;;;;;;;11.15;4.45;;;10.90;99.90;;;;;;4986302;28;20101;-78
2022/11/07 03:29:23;;;;;;;12.20;4.43;;;10.90;99.90;;;;;;4979835;28;20188;-78
2022/11/07 03:31:51;;;;;;;9.20;4.57;;;10.80;99.90;;;;;;4985895;28;20141;-77
2022/11/07 03:34:16;;;;;;;11.88;5.18;;;10.60;99.90;;;;;;4987331;28;20125;-78
2022/11/07 03:36:42;;;;;;;8.18;4.00;;;10.80;99.90;;;;;;4988483;28;20046;-78
2022/11/07 03:39:09;;;;;;;8.93;4.70;;;10.80;99.90;;;;;;4972311;28;20137;-78
2022/11/07 03:41:35;;;;;;;10.05;4.47;;;10.80;99.90;;;;;;4988415;28;20050;-78
2022/11/07 03:44:01;;;;;;;9.15;4.65;;;10.80;99.90;;;;;;4974326;28;20035;-78
2022/11/07 03:46:26;;;;;;;9.13;4.40;;;10.70;99.90;;;;;;4988330;28;20042;-78
2022/11/07 03:48:57;;;;;;;8.82;4.60;;;10.80;99.90;;;;;;4989161;28;20159;-78
2022/11/07 03:51:32;;;;;;;9.60;4.40;;;11.30;99.90;;;;;;4973526;28;20580;-78
2022/11/07 03:53:58;;;;;;;12.00;4.50;;;10.50;99.90;;;;;;4988548;28;20053;-78
2022/11/07 03:56:23;;;;;;;12.38;4.90;;;10.60;99.90;;;;;;4988025;28;20050;-77
2022/11/07 03:58:49;;;;;;;9.15;4.60;;;11.80;99.90;;;;;;4979364;28;20829;-77
2022/11/07 04:01:15;;;;;;;9.20;4.22;;;10.90;99.90;;;;;;4988089;28;20050;-77
2022/11/07 04:03:40;;;;;;;9.23;4.53;;;10.80;99.90;;;;;;4988572;28;20082;-77
2022/11/07 04:06:06;;;;;;;7.90;4.25;;;10.60;99.90;;;;;;4989097;28;20086;-78
2022/11/07 04:08:32;;;;;;;14.68;4.65;;;10.90;99.90;;;;;;4987366;28;20054;-77
2022/11/07 04:10:57;;;;;;;12.35;4.45;;;11.20;99.90;;;;;;4987954;28;20038;-77
2022/11/07 04:18:57;;;;;;;7.95;4.13;;;10.90;99.90;;;;;;4984137;28;20421;-78
2022/11/07 04:21:25;;;;;;;7.68;4.15;;;10.90;99.90;;;;;;4986920;28;20108;-77
2022/11/07 04:23:51;;;;;;;9.07;4.35;;;11.10;99.90;;;;;;4972375;28;20084;-78
2022/11/07 04:29:04;;;;;;;9.30;4.30;;;11.00;99.90;;;;;;4980259;28;20113;-78
2022/11/07 04:31:29;;;;;;;9.25;4.63;;;11.10;99.90;;;;;;4979969;28;20046;-78
2022/11/07 04:33:55;;;;;;;9.30;3.90;;;11.00;99.90;;;;;;4987780;28;20037;-78
2022/11/07 04:36:21;;;;;;;11.38;4.68;;;11.10;99.90;;;;;;4987233;28;20092;-78
2022/11/07 04:38:46;;;;;;;11.68;4.50;;;11.00;99.90;;;;;;4970676;28;20038;-78
2022/11/07 04:41:24;;;;;;;9.50;4.57;;;11.10;99.90;;;;;;4969777;28;20046;-78
2022/11/07 04:43:50;;;;;;;12.25;4.50;;;10.90;99.90;;;;;;4985873;28;20057;-78
2022/11/07 04:46:17;;;;;;;10.07;4.13;;;11.00;99.90;;;;;;4987461;28;20054;-78
2022/11/07 04:48:43;;;;;;;9.60;3.80;;;11.70;99.90;;;;;;4988187;28;20073;-78
2022/11/07 04:51:15;;;;;;;12.35;4.70;;;11.00;99.90;;;;;;4970929;28;20528;-78
2022/11/07 04:53:41;;;;;;;7.70;4.13;;;10.80;99.90;;;;;;4986720;28;20042;-78
2022/11/07 04:56:06;;;;;;;12.75;4.68;;;10.90;99.90;;;;;;4986298;28;20097;-78
2022/11/07 04:58:35;;;;;;;11.65;4.13;;;10.90;99.90;;;;;;4969910;28;20064;-78
2022/11/07 05:01:00;;;;;;;10.15;5.30;;;10.80;99.90;;;;;;4970250;28;20051;-78
2022/11/07 05:03:26;;;;;;;15.10;4.32;;;10.80;99.90;;;;;;4983764;28;20054;-79
2022/11/07 05:05:51;;;;;;;6.53;4.53;;;10.90;99.90;;;;;;4986920;28;20050;-79
2022/11/07 05:08:17;;;;;;;8.18;4.40;;;10.80;99.90;;;;;;4985648;28;20050;-79
2022/11/07 05:10:43;;;;;;;8.68;4.55;;;10.80;99.90;;;;;;4987126;28;20070;-78
2022/11/07 05:13:08;;;;;;;10.60;5.30;;;10.70;99.90;;;;;;4985825;28;20047;-78
2022/11/07 05:15:34;;;;;;;9.98;5.40;;;10.60;99.90;;;;;;4970736;28;20089;-78
2022/11/07 05:18:00;;;;;;;6.97;4.50;;;10.60;99.90;;;;;;4985983;28;20060;-78
2022/11/07 05:20:30;;;;;;;7.10;4.93;;;10.70;99.90;;;;;;4985125;28;20038;-79
2022/11/07 05:23:11;;;;;;;9.75;5.05;;;10.70;99.90;;;;;;4986245;28;20355;-78
2022/11/07 05:25:37;;;;;;;8.38;5.25;;;10.70;99.90;;;;;;4987115;28;20088;-79
2022/11/07 05:28:03;;;;;;;12.60;5.13;;;10.70;99.90;;;;;;4986647;28;20104;-78
2022/11/07 05:30:29;;;;;;;11.50;5.30;;;10.80;99.90;;;;;;4973968;28;20050;-78
2022/11/07 05:32:54;;;;;;;9.88;5.50;;;11.90;99.90;;;;;;4992829;28;20050;-78
2022/11/07 05:35:20;;;;;;;8.63;5.28;;;10.70;99.90;;;;;;4976815;28;20104;-78
2022/11/07 05:37:47;;;;;;;7.70;4.93;;;10.70;99.90;;;;;;4971866;28;20078;-79
2022/11/07 05:40:13;;;;;;;11.45;5.28;;;10.70;99.90;;;;;;4993854;28;20423;-78
2022/11/07 05:42:38;;;;;;;9.05;5.35;;;10.70;99.90;;;;;;4992881;28;20059;-79
2022/11/07 05:45:05;;;;;;;12.88;5.60;;;10.70;99.90;;;;;;4991604;28;20054;-78
2022/11/07 05:47:30;;;;;;;10.85;5.38;;;10.80;99.90;;;;;;4992213;28;20488;-79
2022/11/07 05:49:56;;;;;;;11.50;5.40;;;10.80;99.90;;;;;;4991396;28;20093;-80
2022/11/07 05:52:21;;;;;;;8.68;4.65;;;10.90;99.90;;;;;;4992014;28;20069;-79
2022/11/07 05:54:47;;;;;;;8.18;5.07;;;10.70;99.90;;;;;;4991419;28;20137;-79
2022/11/07 05:57:12;;;;;;;11.38;5.25;;;10.90;99.90;;;;;;4993960;28;20048;-79
2022/11/07 05:59:38;;;;;;;7.30;4.85;;;10.80;99.90;;;;;;4994285;28;20035;-79
2022/11/07 06:02:03;;;;;;;12.60;5.10;;;11.00;99.90;;;;;;4994003;28;20054;-79
2022/11/07 06:04:29;;;;;;;13.40;4.35;;;10.80;99.90;;;;;;4991674;28;20038;-80
2022/11/07 06:06:54;;;;;;;9.15;5.10;;;10.80;99.90;;;;;;4975060;28;20071;-79
2022/11/07 06:09:20;;;;;;;8.13;4.47;;;10.80;99.90;;;;;;4976521;28;20125;-79
2022/11/07 06:11:46;;;;;;;14.85;4.85;;;10.70;99.90;;;;;;4987515;28;20046;-80
2022/11/07 06:14:11;;;;;;;10.50;5.30;;;10.70;99.90;;;;;;4975829;28;20129;-80
2022/11/07 06:16:37;;;;;;;9.15;4.40;;;10.80;99.90;;;;;;4987258;28;20039;-80
2022/11/07 06:19:02;;;;;;;7.18;4.65;;;10.80;99.90;;;;;;4976742;28;20054;-80
2022/11/07 06:21:29;;;;;;;9.23;5.00;;;10.80;99.90;;;;;;4993287;28;20046;-79
2022/11/07 06:23:54;;;;;;;9.55;4.70;;;10.80;99.90;;;;;;4976988;28;20768;-79
2022/11/07 06:26:20;;;;;;;13.05;5.55;;;11.00;99.90;;;;;;4991466;28;20065;-79
2022/11/07 06:28:45;;;;;;;11.55;5.20;;;10.70;99.90;;;;;;4992507;28;20551;-78
2022/11/07 06:31:11;;;;;;;15.50;6.03;;;10.60;99.90;;;;;;4978614;28;20051;-79
2022/11/07 06:33:37;;;;;;;12.30;5.13;;;10.70;99.90;;;;;;4973759;28;20082;-80
2022/11/07 06:36:08;;;;;;;10.93;6.20;;;10.70;99.90;;;;;;4985785;28;20046;-78
2022/11/07 06:38:34;;;;;;;16.13;6.00;;;10.70;99.90;;;;;;4990140;28;20042;-80
2022/11/07 06:41:11;;;;;;;16.10;6.00;;;10.80;99.90;;;;;;4969838;28;20101;-80
2022/11/07 06:43:37;;;;;;;15.32;6.22;;;10.80;99.90;;;;;;4971595;28;20059;-78
2022/11/07 06:46:06;;;;;;;14.25;6.72;;;10.60;99.90;;;;;;4970544;28;20054;-78
2022/11/07 06:48:32;;;;;;;13.25;6.05;;;10.80;99.90;;;;;;4980020;28;20425;-78
2022/11/07 06:51:03;;;;;;;12.85;5.82;;;10.70;99.90;;;;;;4954129;28;20105;-78
2022/11/07 06:53:29;;;;;;;16.00;6.45;;;10.70;99.90;;;;;;4970422;28;20050;-78
2022/11/07 06:55:55;;;;;;;12.20;5.82;;;10.60;99.90;;;;;;4969789;28;20101;-78
2022/11/07 06:58:21;;;;;;;10.80;5.97;;;10.50;99.90;;;;;;4970434;28;20061;-78
2022/11/07 07:00:47;;;;;;;19.25;7.13;;;10.70;99.90;;;;;;4970506;28;20449;-78
2022/11/07 07:03:12;;;;;;;17.40;6.88;;;10.60;99.90;;;;;;4956231;28;20055;-78
2022/11/07 07:05:38;;;;;;;18.23;6.95;;;11.10;99.90;;;;;;4990691;28;20588;-78
2022/11/07 07:08:06;;;;;;;14.13;6.10;;;10.90;99.90;;;;;;4989236;28;20461;-78
2022/11/07 07:10:39;;;;;;;15.35;6.97;;;10.80;99.90;;;;;;4972895;28;20250;-78
2022/11/07 07:13:05;;;;;;;15.40;6.35;;;10.90;99.90;;;;;;4989486;28;20097;-79
2022/11/07 07:15:31;;;;;;;14.23;6.35;;;10.90;99.90;;;;;;4989573;28;20097;-79
2022/11/07 07:18:03;;;;;;;12.00;6.13;;;10.90;99.90;;;;;;4989046;28;20056;-78
2022/11/07 07:20:29;;;;;;;11.95;5.85;;;11.20;99.90;;;;;;4991054;28;20065;-78
2022/11/07 07:22:55;;;;;;;16.98;5.85;;;11.10;99.90;;;;;;4989080;28;20496;-78
2022/11/07 07:25:21;;;;;;;13.18;5.45;;;11.00;99.90;;;;;;4989422;28;20042;-79
2022/11/07 07:27:47;;;;;;;11.40;5.22;;;11.00;99.90;;;;;;4975257;28;20047;-79
2022/11/07 07:30:13;;;;;;;13.85;5.22;;;11.60;99.90;;;;;;4970254;28;20051;-79
2022/11/07 07:32:38;;;;;;;18.08;5.88;;;11.40;99.90;;;;;;4969367;28;20054;-78
2022/11/07 07:35:05;;;;;;;13.07;5.35;;;11.20;99.90;;;;;;4969931;28;20057;-79
2022/11/07 07:37:30;;;;;;;9.25;4.75;;;11.30;99.90;;;;;;4969403;28;20053;-78
2022/11/07 07:39:56;;;;;;;12.18;5.00;;;11.20;99.90;;;;;;4969244;28;20051;-79
2022/11/07 07:42:22;;;;;;;11.40;5.10;;;11.30;99.90;;;;;;4968815;28;20129;-78
2022/11/07 07:44:47;;;;;;;10.45;5.20;;;11.30;99.90;;;;;;4986639;28;20042;-78
2022/11/07 07:47:13;;;;;;;12.10;5.05;;;11.40;99.90;;;;;;4989974;28;20757;-79
2022/11/07 07:49:38;;;;;;;7.85;4.70;;;11.80;99.90;;;;;;4988623;28;20050;-79
2022/11/07 07:52:04;;;;;;;14.23;4.72;;;11.60;99.90;;;;;;4988764;28;20416;-78
2022/11/07 07:54:30;;;;;;;15.75;5.63;;;11.40;99.90;;;;;;4988269;28;20089;-78
2022/11/07 07:56:55;;;;;;;10.02;4.80;;;11.40;99.90;;;;;;4989548;28;20042;-78
2022/11/07 07:59:21;;;;;;;11.07;4.40;;;11.80;99.90;;;;;;4987218;28;20121;-78
2022/11/07 08:01:47;;;;;;;10.80;4.72;;;11.60;99.90;;;;;;4988572;28;20057;-78
2022/11/07 08:04:12;;;;;;;9.07;4.57;;;11.50;99.90;;;;;;4989726;28;20570;-79
2022/11/07 08:06:38;;;;;;;13.77;5.03;;;11.70;99.90;;;;;;4989777;28;20122;-78
2022/11/07 08:09:04;;;;;;;10.50;4.40;;;11.90;99.90;;;;;;4988365;28;20062;-78
2022/11/07 08:11:29;;;;;;;11.32;4.78;;;11.80;99.90;;;;;;4972215;28;20081;-78
2022/11/07 08:13:55;;;;;;;9.18;4.18;;;12.30;99.90;;;;;;4982400;28;20050;-78
2022/11/07 08:16:21;;;;;;;11.30;4.70;;;11.70;99.90;;;;;;4968805;28;20047;-78
2022/11/07 08:18:46;;;;;;;9.15;4.45;;;11.80;99.90;;;;;;4968744;28;20047;-78
2022/11/07 08:21:12;;;;;;;11.23;4.20;;;11.80;99.90;;;;;;4969238;28;20062;-78
2022/11/07 08:23:37;;;;;;;12.02;4.47;;;11.80;99.90;;;;;;4968540;28;20047;-78
2022/11/07 08:26:04;;;;;;;11.10;4.35;;;11.80;99.90;;;;;;4968363;28;20106;-78
2022/11/07 08:28:33;;;;;;;10.38;4.03;;;11.90;99.90;;;;;;4969648;28;20055;-78
2022/11/07 08:31:08;;;;;;;12.48;4.10;;;11.90;99.90;;;;;;4986405;28;20497;-78
2022/11/07 08:33:34;;;;;;;12.60;4.43;;;11.90;99.90;;;;;;4988036;28;20049;-78
2022/11/07 08:36:01;;;;;;;13.07;4.72;;;12.50;99.90;;;;;;4989216;28;20141;-78
2022/11/07 08:38:29;;;;;;;12.50;4.30;;;12.00;99.90;;;;;;4988220;28;20046;-78
2022/11/07 08:40:55;;;;;;;11.95;4.18;;;12.10;99.90;;;;;;4986901;28;20069;-78
2022/11/07 08:43:21;;;;;;;11.13;4.10;;;12.10;99.90;;;;;;4987554;28;20046;-79
2022/11/07 08:45:47;;;;;;;10.48;4.18;;;12.10;99.90;;;;;;4971174;28;20050;-78
2022/11/07 08:48:15;;;;;;;9.93;3.83;;;12.40;99.90;;;;;;4987540;28;20743;-78
2022/11/07 08:50:41;;;;;;;10.32;4.07;;;12.10;99.90;;;;;;4987738;28;20386;-78
2022/11/07 08:53:07;;;;;;;11.68;4.03;;;12.20;99.90;;;;;;4988015;28;20058;-78
2022/11/07 08:55:33;;;;;;;9.43;4.10;;;12.10;99.90;;;;;;4987673;28;20156;-78
2022/11/07 08:58:05;;;;;;;9.27;3.63;;;12.20;99.90;;;;;;4986880;28;20489;-79
2022/11/07 09:00:31;;;;;;;14.52;4.45;;;12.30;99.90;;;;;;4975646;28;20121;-78
2022/11/07 09:03:01;;;;;;;14.73;4.88;;;12.20;99.90;;;;;;4984421;28;20126;-77
2022/11/07 09:05:26;;;;;;;15.32;4.50;;;13.10;99.90;;;;;;4979971;28;20047;-78
2022/11/07 09:07:52;;;;;;;10.32;3.90;;;12.20;99.90;;;;;;4985632;28;20050;-79
2022/11/07 09:10:18;;;;;;;9.20;3.30;;;12.10;99.90;;;;;;4985992;28;20050;-78
2022/11/07 09:12:45;;;;;;;9.70;3.83;;;12.00;99.90;;;;;;4974023;28;20073;-79
2022/11/07 09:15:11;;;;;;;10.43;3.90;;;12.20;99.90;;;;;;4992796;28;20050;-79
2022/11/07 09:17:36;;;;;;;11.82;3.42;;;12.30;99.90;;;;;;4983172;28;20113;-79
2022/11/07 09:20:02;;;;;;;9.80;3.55;;;12.10;99.90;;;;;;4970829;28;20069;-78
2022/11/07 09:22:28;;;;;;;11.82;4.28;;;12.20;99.90;;;;;;4988913;28;20085;-78
2022/11/07 09:24:53;;;;;;;15.35;4.07;;;12.20;99.90;;;;;;4988039;28;20077;-78
2022/11/07 09:27:19;;;;;;;11.35;3.90;;;12.10;99.90;;;;;;4986515;28;20101;-79
2022/11/07 09:29:44;;;;;;;7.78;3.40;;;12.10;99.90;;;;;;4985242;28;20122;-78
2022/11/07 09:32:10;;;;;;;11.02;3.97;;;12.10;99.90;;;;;;4987451;28;20046;-78
2022/11/07 09:34:35;;;;;;;13.40;4.35;;;12.10;99.90;;;;;;4987013;28;20050;-79
2022/11/07 09:37:02;;;;;;;8.48;3.55;;;12.10;99.90;;;;;;4969974;28;20073;-78
2022/11/07 09:39:27;;;;;;;9.52;3.97;;;12.10;99.90;;;;;;4985755;28;20047;-78
2022/11/07 09:42:32;;;;;;;11.25;4.03;;;12.30;99.90;;;;;;4988185;28;20125;-78
2022/11/07 09:44:59;;;;;;;11.50;4.35;;;12.30;99.90;;;;;;4984530;28;20064;-77
2022/11/07 09:47:45;;;;;;;10.40;3.05;;;12.40;99.90;;;;;;4996454;28;20118;-79
2022/11/07 09:50:30;;;;;;;9.13;3.70;;;12.50;99.90;;;;;;4986856;28;20121;-79
2022/11/07 09:53:17;;;;;;;8.27;3.47;;;12.50;99.90;;;;;;4986494;28;20112;-79
2022/11/07 09:55:59;;;;;;;8.93;3.92;;;13.40;99.90;;;;;;4983362;28;20633;-80
2022/11/07 09:58:46;;;;;;;9.32;3.70;;;;;;;;;;4982013;28;20112;-79
2022/11/07 10:01:13;;;;;;;10.07;3.50;;;;;;;;;;4985570;28;20046;-79
2022/11/07 10:03:40;;;;;;;9.82;3.22;;;;;;;;;;4986490;28;20078;-80
2022/11/07 10:06:06;;;;;;;12.45;3.85;;;;;;;;;;4986225;28;20054;-80
2022/11/07 10:09:03;;;;;;;10.52;3.90;;;12.70;99.90;;;;;;4986503;28;20552;-79
2022/11/07 10:11:31;;;;;;;11.15;4.43;;;12.70;99.90;;;;;;4976629;28;20059;-79
2022/11/07 10:14:03;;;;;;;9.75;3.50;;;12.60;99.90;;;;;;4967298;28;20097;-80
2022/11/07 10:16:34;;;;;;;8.60;3.58;;;12.60;99.90;;;;;;4969054;28;20093;-79
2022/11/07 10:19:11;;;;;;;7.15;4.10;;;12.60;99.90;;;;;;4972446;28;20124;-79
2022/11/07 10:22:00;;;;;;;10.02;3.75;;;12.70;99.90;;;;;;4970970;28;20050;-80
2022/11/07 10:24:40;;;;;;;7.72;3.88;;;12.70;99.90;;;;;;4971243;28;20102;-79
2022/11/07 10:27:10;;;;;;;9.07;3.55;;;12.80;99.90;;;;;;4987881;28;20046;-79
2022/11/07 10:29:53;;;;;;;7.82;3.35;;;12.90;99.90;;;;;;4987722;28;20034;-80
2022/11/07 10:32:55;;;;;;;10.32;3.75;;;13.00;99.90;;;;;;4974111;28;20046;-80
2022/11/07 10:35:29;;;;;;;9.70;4.07;;;13.00;99.90;;;;;;4988580;28;20134;-81
2022/11/07 10:38:20;;;;;;;13.13;3.45;;;13.00;99.90;;;;;;4969129;28;20054;-79
2022/11/07 10:40:48;;;;;;;9.25;3.25;;;13.10;99.90;;;;;;4979227;28;20128;-79
2022/11/07 10:43:36;;;;;;;9.88;3.50;;;13.10;99.90;;;;;;4989158;28;20050;-80
2022/11/07 10:46:41;;;;;;;7.85;3.50;;;13.20;99.90;;;;;;4989381;28;20402;-80
2022/11/07 10:49:21;;;;;;;25.20;4.55;;;13.20;99.90;;;;;;4976732;28;20058;-80
2022/11/07 10:51:54;;;;;;;7.07;3.42;;;13.30;99.90;;;;;;4972702;28;20196;-78
2022/11/07 10:54:29;;;;;;;8.82;3.10;;;13.60;99.90;;;;;;4986339;28;20070;-80
2022/11/07 10:57:10;;;;;;;8.07;3.17;;;13.30;99.90;;;;;;4971760;28;20057;-79
2022/11/07 10:59:40;;;;;;;8.88;3.20;;;13.40;99.90;;;;;;4988624;28;20043;-79
2022/11/07 11:02:20;;;;;;;7.75;3.28;;;13.50;99.90;;;;;;4988460;28;20077;-79
2022/11/07 11:05:01;;;;;;;8.43;3.15;;;13.50;99.90;;;;;;4971343;28;20112;-80
2022/11/07 11:07:39;;;;;;;10.77;3.47;;;13.60;99.90;;;;;;4953455;28;20396;-80
2022/11/07 11:10:20;;;;;;;8.05;3.22;;;13.70;99.90;;;;;;4984746;28;20065;-80
2022/11/07 11:12:47;;;;;;;11.20;3.03;;;13.80;99.90;;;;;;4988260;28;20093;-80
2022/11/07 11:15:16;;;;;;;9.27;3.58;;;13.80;99.90;;;;;;4981781;28;20043;-80
2022/11/07 11:17:43;;;;;;;9.95;3.55;;;13.90;99.90;;;;;;4956212;28;20571;-80
2022/11/07 11:20:38;;;;;;;12.07;3.97;;;13.90;99.90;;;;;;4980995;28;20116;-80
2022/11/07 11:23:14;;;;;;;9.38;3.40;;;14.50;99.90;;;;;;4986742;28;20061;-80
2022/11/07 11:25:45;;;;;;;9.55;3.13;;;13.90;99.90;;;;;;4985158;28;20050;-80
2022/11/07 11:28:41;;;;;;;8.47;3.03;;;13.90;99.90;;;;;;4997962;28;20107;-80
2022/11/07 11:31:25;;;;;;;6.53;2.95;;;13.90;99.90;;;;;;4965704;28;20046;-81
2022/11/07 11:33:57;;;;;;;9.15;3.40;;;14.00;99.90;;;;;;5008911;28;20484;-80
2022/11/07 11:36:28;;;;;;;7.28;2.95;;;14.00;99.90;;;;;;5002841;28;20120;-81
2022/11/07 11:38:54;;;;;;;7.20;3.05;;;14.00;99.90;;;;;;4965441;28;20066;-80
2022/11/07 11:41:31;;;;;;;9.70;3.30;;;14.00;99.90;;;;;;4986354;28;20050;-80
2022/11/07 11:44:21;;;;;;;9.15;3.28;;;14.00;99.90;;;;;;4986849;28;20125;-80
2022/11/07 11:47:23;;;;;;;10.27;3.35;;;14.00;99.90;;;;;;4987658;28;20054;-82
2022/11/07 11:50:14;;;;;;;5.95;2.90;;;14.10;99.90;;;;;;4972535;28;20556;-82
2022/11/07 11:52:40;;;;;;;6.95;3.47;;;14.00;99.90;;;;;;4988255;28;20054;-78
2022/11/07 11:55:13;;;;;;;9.75;3.15;;;13.90;99.90;;;;;;4988558;28;20129;-79
2022/11/07 11:57:51;;;;;;;11.77;4.05;;;13.90;99.90;;;;;;4985878;28;20038;-80
2022/11/07 12:00:18;;;;;;;8.82;3.60;;;13.90;99.90;;;;;;4952849;28;20130;-78
2022/11/07 12:03:22;;;;;;;5.03;2.95;;;13.90;99.90;;;;;;4982206;28;20038;-80
2022/11/07 12:06:18;;;;;;;7.63;2.85;;;13.90;99.90;;;;;;4987917;28;20049;-80
2022/11/07 12:09:14;;;;;;;8.60;3.50;;;13.90;99.90;;;;;;4988287;28;20068;-80
2022/11/07 12:12:08;;;;;;;8.88;3.67;;;13.90;99.90;;;;;;4968124;28;20117;-80
2022/11/07 12:15:00;;;;;;;8.73;2.92;;;13.90;99.90;;;;;;4972314;28;20086;-81
2022/11/07 12:17:35;;;;;;;9.30;3.60;;;14.00;99.90;;;;;;4968642;28;20055;-81
2022/11/07 12:20:22;;;;;;;9.75;3.70;;;14.00;99.90;;;;;;4988390;28;20154;-81
2022/11/07 12:23:09;;;;;;;7.57;3.38;;;14.10;99.90;;;;;;4971116;28;20058;-81
2022/11/07 12:26:04;;;;;;;6.55;3.20;;;14.10;99.90;;;;;;4987917;28;20046;-80
2022/11/07 12:28:41;;;;;;;7.28;3.30;;;14.20;99.90;;;;;;4967439;28;20058;-81
2022/11/07 12:31:30;;;;;;;8.57;4.00;;;14.20;99.90;;;;;;4970761;28;20054;-81
2022/11/07 12:34:15;;;;;;;8.45;3.17;;;14.20;99.90;;;;;;4987330;28;20057;-81
2022/11/07 12:37:22;;;;;;;8.40;3.92;;;14.20;99.90;;;;;;4971664;28;20046;-81
2022/11/07 12:40:10;;;;;;;9.23;3.40;;;14.20;99.90;;;;;;4987563;28;20527;-81
2022/11/07 12:42:51;;;;;;;7.63;3.28;;;14.20;99.90;;;;;;4985811;28;20046;-81
2022/11/07 12:45:44;;;;;;;5.68;2.97;;;14.20;99.90;;;;;;4987130;28;20096;-81
2022/11/07 12:49:01;;;;;;;5.28;3.05;;;14.30;99.90;;;;;;4987502;28;20142;-81
2022/11/07 12:52:03;;;;;;;7.93;3.03;;;14.30;99.90;;;;;;4969367;28;20488;-81
2022/11/07 12:54:38;;;;;;;7.10;3.20;;;14.30;99.90;;;;;;4969780;28;20050;-81
2022/11/07 12:57:13;;;;;;;8.13;3.45;;;14.20;99.90;;;;;;4980388;28;20058;-81
2022/11/07 12:59:43;;;;;;;7.85;3.70;;;14.20;99.90;;;;;;4952307;28;20046;-81
2022/11/07 13:02:42;;;;;;;9.00;3.58;;;14.10;99.90;;;;;;4968240;28;20051;-81
2022/11/07 13:05:14;;;;;;;9.15;3.45;;;14.20;99.90;;;;;;4968256;28;20512;-81
2022/11/07 13:07:47;;;;;;;7.63;3.55;;;14.20;99.90;;;;;;4967997;28;20046;-80
2022/11/07 13:10:40;;;;;;;8.70;3.30;;;14.10;99.90;;;;;;4952507;28;20575;-81
2022/11/07 13:13:23;;;;;;;10.57;3.03;;;14.20;99.90;;;;;;4978194;28;20815;-81